sensor_id;sensor_type;location;lat;lon;timestamp;pressure;altitude;pressure_sealevel;temperature;humidity
7018;BME280;3549;42.162;24.726;2023-08-07T00:01:42;47469.09;;;-141.97;48.70
7018;BME280;3549;42.162;24.726;2023-08-07T00:04:08;47440.28;;;-141.97;48.78
7018;BME280;3549;42.162;24.726;2023-08-07T00:06:33;47471.03;;;-141.97;48.99
7018;BME280;3549;42.162;24.726;2023-08-07T00:08:58;47446.03;;;-141.97;49.38
7018;BME280;3549;42.162;24.726;2023-08-07T00:11:24;47438.34;;;-141.97;49.74
7018;BME280;3549;42.162;24.726;2023-08-07T00:13:49;47403.75;;;-141.97;49.92
7018;BME280;3549;42.162;24.726;2023-08-07T00:16:14;47619.03;;;-141.97;49.90
7018;BME280;3549;42.162;24.726;2023-08-07T00:18:40;47472.94;;;-141.97;49.71
7018;BME280;3549;42.162;24.726;2023-08-07T00:21:05;47463.34;;;-141.97;49.67
7018;BME280;3549;42.162;24.726;2023-08-07T00:23:31;47496.00;;;-141.97;49.45
7018;BME280;3549;42.162;24.726;2023-08-07T00:25:56;47457.56;;;-141.97;49.14
7018;BME280;3549;42.162;24.726;2023-08-07T00:28:21;47461.41;;;-141.97;49.02
7018;BME280;3549;42.162;24.726;2023-08-07T00:30:47;47422.97;;;-141.97;49.57
7018;BME280;3549;42.162;24.726;2023-08-07T00:33:12;47457.56;;;-141.97;49.52
7018;BME280;3549;42.162;24.726;2023-08-07T00:35:38;47447.97;;;-141.97;50.15
7018;BME280;3549;42.162;24.726;2023-08-07T00:38:03;47549.84;;;-141.97;50.43
7018;BME280;3549;42.162;24.726;2023-08-07T00:40:36;47436.44;;;-141.97;50.08
7018;BME280;3549;42.162;24.726;2023-08-07T00:43:02;47517.16;;;-141.97;50.20
7018;BME280;3549;42.162;24.726;2023-08-07T00:45:27;47365.31;;;-141.97;50.43
7018;BME280;3549;42.162;24.726;2023-08-07T00:47:53;47482.56;;;-141.97;50.52
7018;BME280;3549;42.162;24.726;2023-08-07T00:50:18;47497.94;;;-141.97;50.55
7018;BME280;3549;42.162;24.726;2023-08-07T00:52:44;47503.69;;;-141.97;50.72
7018;BME280;3549;42.162;24.726;2023-08-07T00:55:10;47463.34;;;-141.97;50.98
7018;BME280;3549;42.162;24.726;2023-08-07T00:57:35;47457.56;;;-141.97;51.11
7018;BME280;3549;42.162;24.726;2023-08-07T01:00:01;47486.41;;;-141.97;51.53
7018;BME280;3549;42.162;24.726;2023-08-07T01:02:27;47478.72;;;-141.97;51.78
7018;BME280;3549;42.162;24.726;2023-08-07T01:04:53;47492.16;;;-141.97;51.47
7018;BME280;3549;42.162;24.726;2023-08-07T01:07:18;47461.41;;;-141.97;51.63
7018;BME280;3549;42.162;24.726;2023-08-07T01:09:43;47486.41;;;-141.97;51.86
7018;BME280;3549;42.162;24.726;2023-08-07T01:12:18;47461.41;;;-141.97;52.03
7018;BME280;3549;42.162;24.726;2023-08-07T01:14:59;47403.75;;;-141.97;52.69
7018;BME280;3549;42.162;24.726;2023-08-07T01:17:28;47472.94;;;-141.97;53.01
7018;BME280;3549;42.162;24.726;2023-08-07T01:19:55;47317.28;;;-141.97;53.41
7018;BME280;3549;42.162;24.726;2023-08-07T01:22:21;47472.94;;;-141.97;53.90
7018;BME280;3549;42.162;24.726;2023-08-07T01:24:48;47474.88;;;-141.97;53.61
7018;BME280;3549;42.162;24.726;2023-08-07T01:32:34;47469.09;;;-141.97;53.61
7018;BME280;3549;42.162;24.726;2023-08-07T01:35:05;47449.88;;;-141.97;53.76
7018;BME280;3549;42.162;24.726;2023-08-07T01:37:36;47465.25;;;-141.97;53.82
7018;BME280;3549;42.162;24.726;2023-08-07T01:40:05;47484.47;;;-141.97;54.28
7018;BME280;3549;42.162;24.726;2023-08-07T01:42:31;47667.06;;;-141.97;54.54
7018;BME280;3549;42.162;24.726;2023-08-07T01:44:58;47424.91;;;-141.97;54.87
7018;BME280;3549;42.162;24.726;2023-08-07T01:47:23;47486.41;;;-141.97;55.37
7018;BME280;3549;42.162;24.726;2023-08-07T01:49:48;47455.66;;;-141.97;55.78
7018;BME280;3549;42.162;24.726;2023-08-07T01:52:14;47480.63;;;-141.97;56.27
7018;BME280;3549;42.162;24.726;2023-08-07T01:54:39;47496.00;;;-141.97;56.57
7018;BME280;3549;42.162;24.726;2023-08-07T01:57:05;47472.94;;;-141.97;56.99
7018;BME280;3549;42.162;24.726;2023-08-07T01:59:30;47476.78;;;-141.97;56.89
7018;BME280;3549;42.162;24.726;2023-08-07T02:01:56;47492.16;;;-141.97;57.17
7018;BME280;3549;42.162;24.726;2023-08-07T02:04:21;47497.94;;;-141.97;57.24
7018;BME280;3549;42.162;24.726;2023-08-07T02:06:47;47526.75;;;-141.97;57.09
7018;BME280;3549;42.162;24.726;2023-08-07T02:09:12;47509.47;;;-141.97;56.95
7018;BME280;3549;42.162;24.726;2023-08-07T02:11:37;47484.47;;;-141.97;56.55
7018;BME280;3549;42.162;24.726;2023-08-07T02:14:03;47463.34;;;-141.97;56.20
7018;BME280;3549;42.162;24.726;2023-08-07T02:16:28;47486.41;;;-141.97;57.08
7018;BME280;3549;42.162;24.726;2023-08-07T02:18:54;47461.41;;;-141.97;57.15
7018;BME280;3549;42.162;24.726;2023-08-07T02:21:19;47378.78;;;-141.97;57.89
7018;BME280;3549;42.162;24.726;2023-08-07T02:23:45;47515.22;;;-141.97;58.11
7018;BME280;3549;42.162;24.726;2023-08-07T02:26:10;47688.22;;;-141.97;58.22
7018;BME280;3549;42.162;24.726;2023-08-07T02:28:35;47486.41;;;-141.97;58.26
7018;BME280;3549;42.162;24.726;2023-08-07T02:31:01;47496.00;;;-141.97;58.18
7018;BME280;3549;42.162;24.726;2023-08-07T02:33:26;47447.97;;;-141.97;58.56
7018;BME280;3549;42.162;24.726;2023-08-07T02:35:51;47613.25;;;-141.97;58.17
7018;BME280;3549;42.162;24.726;2023-08-07T02:38:17;47497.94;;;-141.97;58.27
7018;BME280;3549;42.162;24.726;2023-08-07T02:40:43;47534.44;;;-141.97;58.25
7018;BME280;3549;42.162;24.726;2023-08-07T02:43:08;47490.25;;;-141.97;58.11
7018;BME280;3549;42.162;24.726;2023-08-07T02:45:34;47478.72;;;-141.97;58.42
7018;BME280;3549;42.162;24.726;2023-08-07T02:48:00;47590.19;;;-141.97;58.59
7018;BME280;3549;42.162;24.726;2023-08-07T02:50:25;47670.91;;;-141.97;58.77
7018;BME280;3549;42.162;24.726;2023-08-07T02:52:52;47488.31;;;-141.97;58.96
7018;BME280;3549;42.162;24.726;2023-08-07T02:55:18;47505.63;;;-141.97;59.69
7018;BME280;3549;42.162;24.726;2023-08-07T02:57:43;47497.94;;;-141.97;59.62
7018;BME280;3549;42.162;24.726;2023-08-07T03:00:09;47532.53;;;-141.97;60.04
7018;BME280;3549;42.162;24.726;2023-08-07T03:02:36;47482.56;;;-141.97;60.63
7018;BME280;3549;42.162;24.726;2023-08-07T03:05:02;47551.75;;;-141.97;60.97
7018;BME280;3549;42.162;24.726;2023-08-07T03:07:27;47497.94;;;-141.97;61.22
7018;BME280;3549;42.162;24.726;2023-08-07T03:09:52;47505.63;;;-141.97;61.26
7018;BME280;3549;42.162;24.726;2023-08-07T03:12:18;47444.13;;;-141.97;61.26
7018;BME280;3549;42.162;24.726;2023-08-07T03:14:43;47526.75;;;-141.97;61.30
7018;BME280;3549;42.162;24.726;2023-08-07T03:17:09;47511.38;;;-141.97;61.42
7018;BME280;3549;42.162;24.726;2023-08-07T03:19:34;47478.72;;;-141.97;61.68
7018;BME280;3549;42.162;24.726;2023-08-07T03:22:00;47461.41;;;-141.97;61.54
7018;BME280;3549;42.162;24.726;2023-08-07T03:24:25;47515.22;;;-141.97;60.84
7018;BME280;3549;42.162;24.726;2023-08-07T03:26:50;47522.91;;;-141.97;60.29
7018;BME280;3549;42.162;24.726;2023-08-07T03:29:16;47507.53;;;-141.97;59.72
7018;BME280;3549;42.162;24.726;2023-08-07T03:31:41;47526.75;;;-141.97;59.46
7018;BME280;3549;42.162;24.726;2023-08-07T03:34:07;47519.06;;;-141.97;59.81
7018;BME280;3549;42.162;24.726;2023-08-07T03:36:32;47476.78;;;-141.97;59.87
7018;BME280;3549;42.162;24.726;2023-08-07T03:38:57;47638.25;;;-141.97;59.88
7018;BME280;3549;42.162;24.726;2023-08-07T03:41:23;47519.06;;;-141.97;60.00
7018;BME280;3549;42.162;24.726;2023-08-07T03:43:48;47507.53;;;-141.97;59.92
7018;BME280;3549;42.162;24.726;2023-08-07T03:46:14;47492.16;;;-141.97;59.97
7018;BME280;3549;42.162;24.726;2023-08-07T03:48:39;47480.63;;;-141.97;59.43
7018;BME280;3549;42.162;24.726;2023-08-07T03:51:05;47497.94;;;-141.97;59.34
7018;BME280;3549;42.162;24.726;2023-08-07T03:53:33;47476.78;;;-141.97;58.88
7018;BME280;3549;42.162;24.726;2023-08-07T03:55:58;47507.53;;;-141.97;58.99
7018;BME280;3549;42.162;24.726;2023-08-07T03:58:24;47530.59;;;-141.97;58.58
7018;BME280;3549;42.162;24.726;2023-08-07T04:00:50;47522.91;;;-141.97;58.44
7018;BME280;3549;42.162;24.726;2023-08-07T04:03:16;47553.69;;;-141.97;58.29
7018;BME280;3549;42.162;24.726;2023-08-07T04:05:41;47515.22;;;-141.97;57.96
7018;BME280;3549;42.162;24.726;2023-08-07T04:08:07;47509.47;;;-141.97;58.15
7018;BME280;3549;42.162;24.726;2023-08-07T04:10:32;47501.78;;;-141.97;58.21
7018;BME280;3549;42.162;24.726;2023-08-07T04:12:57;47519.06;;;-141.97;58.03
7018;BME280;3549;42.162;24.726;2023-08-07T04:15:23;47499.84;;;-141.97;57.91
7018;BME280;3549;42.162;24.726;2023-08-07T04:17:48;47521.00;;;-141.97;58.04
7018;BME280;3549;42.162;24.726;2023-08-07T04:20:14;47503.69;;;-141.97;58.12
7018;BME280;3549;42.162;24.726;2023-08-07T04:22:39;47486.41;;;-141.97;57.70
7018;BME280;3549;42.162;24.726;2023-08-07T04:25:05;47486.41;;;-141.97;57.87
7018;BME280;3549;42.162;24.726;2023-08-07T04:27:31;47476.78;;;-141.97;57.38
7018;BME280;3549;42.162;24.726;2023-08-07T04:29:56;47499.84;;;-141.97;57.18
7018;BME280;3549;42.162;24.726;2023-08-07T04:32:23;47501.78;;;-141.97;57.20
7018;BME280;3549;42.162;24.726;2023-08-07T04:34:48;47524.84;;;-141.97;56.94
7018;BME280;3549;42.162;24.726;2023-08-07T04:37:13;47482.56;;;-141.97;56.93
7018;BME280;3549;42.162;24.726;2023-08-07T04:39:39;47515.22;;;-141.97;56.82
7018;BME280;3549;42.162;24.726;2023-08-07T04:42:04;47499.84;;;-141.97;56.87
7018;BME280;3549;42.162;24.726;2023-08-07T04:44:30;47515.22;;;-141.97;57.24
7018;BME280;3549;42.162;24.726;2023-08-07T04:46:55;47526.75;;;-141.97;56.78
7018;BME280;3549;42.162;24.726;2023-08-07T04:49:21;47497.94;;;-141.97;56.78
7018;BME280;3549;42.162;24.726;2023-08-07T04:51:47;47482.56;;;-141.97;57.01
7018;BME280;3549;42.162;24.726;2023-08-07T04:54:12;47436.44;;;-141.97;56.82
7018;BME280;3549;42.162;24.726;2023-08-07T04:56:38;47611.34;;;-141.97;56.43
7018;BME280;3549;42.162;24.726;2023-08-07T04:59:03;47430.66;;;-141.97;56.48
7018;BME280;3549;42.162;24.726;2023-08-07T05:01:28;47476.78;;;-141.97;56.12
7018;BME280;3549;42.162;24.726;2023-08-07T05:03:54;47478.72;;;-141.97;55.90
7018;BME280;3549;42.162;24.726;2023-08-07T05:06:19;47494.09;;;-141.97;55.64
7018;BME280;3549;42.162;24.726;2023-08-07T05:08:45;47488.31;;;-141.97;55.26
7018;BME280;3549;42.162;24.726;2023-08-07T05:11:10;47469.09;;;-141.97;54.87
7018;BME280;3549;42.162;24.726;2023-08-07T05:13:35;47536.38;;;-141.97;55.09
7018;BME280;3549;42.162;24.726;2023-08-07T05:16:01;47628.63;;;-141.97;54.89
7018;BME280;3549;42.162;24.726;2023-08-07T05:18:26;47513.31;;;-141.97;54.39
7018;BME280;3549;42.162;24.726;2023-08-07T05:20:51;47434.50;;;-141.97;54.22
7018;BME280;3549;42.162;24.726;2023-08-07T05:23:17;47507.53;;;-141.97;54.13
7018;BME280;3549;42.162;24.726;2023-08-07T05:25:45;47511.38;;;-141.97;54.23
7018;BME280;3549;42.162;24.726;2023-08-07T05:28:12;47497.94;;;-141.97;53.70
7018;BME280;3549;42.162;24.726;2023-08-07T05:30:37;47480.63;;;-141.97;54.03
7018;BME280;3549;42.162;24.726;2023-08-07T05:33:03;47496.00;;;-141.97;54.05
7018;BME280;3549;42.162;24.726;2023-08-07T05:35:28;47496.00;;;-141.97;53.62
7018;BME280;3549;42.162;24.726;2023-08-07T05:37:53;47422.97;;;-141.97;53.73
7018;BME280;3549;42.162;24.726;2023-08-07T05:40:19;47471.03;;;-141.97;53.57
7018;BME280;3549;42.162;24.726;2023-08-07T05:42:44;47497.94;;;-141.97;53.62
7018;BME280;3549;42.162;24.726;2023-08-07T05:45:10;47424.91;;;-141.97;53.39
7018;BME280;3549;42.162;24.726;2023-08-07T05:47:38;47472.94;;;-141.97;53.15
7018;BME280;3549;42.162;24.726;2023-08-07T05:50:04;47620.94;;;-141.97;52.83
7018;BME280;3549;42.162;24.726;2023-08-07T05:52:29;47461.41;;;-141.97;52.51
7018;BME280;3549;42.162;24.726;2023-08-07T05:54:55;47480.63;;;-141.97;51.89
7018;BME280;3549;42.162;24.726;2023-08-07T05:57:20;47465.25;;;-141.97;51.22
7018;BME280;3549;42.162;24.726;2023-08-07T05:59:45;47599.81;;;-141.97;51.45
7018;BME280;3549;42.162;24.726;2023-08-07T06:02:11;47474.88;;;-141.97;51.18
7018;BME280;3549;42.162;24.726;2023-08-07T06:04:37;47388.38;;;-141.97;50.78
7018;BME280;3549;42.162;24.726;2023-08-07T06:07:03;47472.94;;;-141.97;50.83
7018;BME280;3549;42.162;24.726;2023-08-07T06:09:28;47471.03;;;-141.97;50.65
7018;BME280;3549;42.162;24.726;2023-08-07T06:11:54;47465.25;;;-141.97;50.03
7018;BME280;3549;42.162;24.726;2023-08-07T06:14:19;47578.66;;;-141.97;50.01
7018;BME280;3549;42.162;24.726;2023-08-07T06:16:44;47463.34;;;-141.97;49.77
7018;BME280;3549;42.162;24.726;2023-08-07T06:19:10;47484.47;;;-141.97;49.21
7018;BME280;3549;42.162;24.726;2023-08-07T06:21:36;47488.31;;;-141.97;49.19
7018;BME280;3549;42.162;24.726;2023-08-07T06:24:01;47471.03;;;-141.97;48.51
7018;BME280;3549;42.162;24.726;2023-08-07T06:26:27;47467.19;;;-141.97;48.07
7018;BME280;3549;42.162;24.726;2023-08-07T06:28:52;47488.31;;;-141.97;47.72
7018;BME280;3549;42.162;24.726;2023-08-07T06:31:18;47449.88;;;-141.97;48.19
7018;BME280;3549;42.162;24.726;2023-08-07T06:33:43;47480.63;;;-141.97;48.14
7018;BME280;3549;42.162;24.726;2023-08-07T06:36:09;47453.72;;;-141.97;47.74
7018;BME280;3549;42.162;24.726;2023-08-07T06:38:34;47430.66;;;-141.97;47.30
7018;BME280;3549;42.162;24.726;2023-08-07T06:41:00;47657.47;;;-141.97;46.59
7018;BME280;3549;42.162;24.726;2023-08-07T06:43:25;47461.41;;;-141.97;46.31
7018;BME280;3549;42.162;24.726;2023-08-07T06:45:55;47459.50;;;-141.97;46.65
7018;BME280;3549;42.162;24.726;2023-08-07T06:48:21;47384.53;;;-141.97;46.43
7018;BME280;3549;42.162;24.726;2023-08-07T06:50:47;47465.25;;;-141.97;46.74
7018;BME280;3549;42.162;24.726;2023-08-07T06:53:13;47417.22;;;-141.97;46.72
7018;BME280;3549;42.162;24.726;2023-08-07T06:55:38;47469.09;;;-141.97;46.30
7018;BME280;3549;42.162;24.726;2023-08-07T06:58:04;47482.56;;;-141.97;45.72
7018;BME280;3549;42.162;24.726;2023-08-07T07:00:29;47440.28;;;-141.97;45.82
7018;BME280;3549;42.162;24.726;2023-08-07T07:02:55;47442.19;;;-141.97;45.95
7018;BME280;3549;42.162;24.726;2023-08-07T07:05:20;47478.72;;;-141.97;45.62
7018;BME280;3549;42.162;24.726;2023-08-07T07:07:46;47413.38;;;-141.97;45.29
7018;BME280;3549;42.162;24.726;2023-08-07T07:10:11;47442.19;;;-141.97;44.51
7018;BME280;3549;42.162;24.726;2023-08-07T07:12:37;47480.63;;;-141.97;44.49
7018;BME280;3549;42.162;24.726;2023-08-07T07:15:02;47440.28;;;-141.97;44.57
7018;BME280;3549;42.162;24.726;2023-08-07T07:17:28;47444.13;;;-141.97;45.08
7018;BME280;3549;42.162;24.726;2023-08-07T07:19:53;47644.00;;;-141.97;44.47
7018;BME280;3549;42.162;24.726;2023-08-07T07:22:19;47455.66;;;-141.97;44.54
7018;BME280;3549;42.162;24.726;2023-08-07T07:24:44;47447.97;;;-141.97;44.06
7018;BME280;3549;42.162;24.726;2023-08-07T07:27:10;47417.22;;;-141.97;43.23
7018;BME280;3549;42.162;24.726;2023-08-07T07:29:35;47417.22;;;-141.97;43.54
7018;BME280;3549;42.162;24.726;2023-08-07T07:32:00;47430.66;;;-141.97;43.74
7018;BME280;3549;42.162;24.726;2023-08-07T07:34:26;47519.06;;;-141.97;43.50
7018;BME280;3549;42.162;24.726;2023-08-07T07:36:51;47459.50;;;-141.97;42.55
7018;BME280;3549;42.162;24.726;2023-08-07T07:39:18;47428.75;;;-141.97;40.95
7018;BME280;3549;42.162;24.726;2023-08-07T07:41:44;47413.38;;;-141.97;41.59
7018;BME280;3549;42.162;24.726;2023-08-07T07:44:09;47521.00;;;-141.97;41.21
7018;BME280;3549;42.162;24.726;2023-08-07T07:46:35;47465.25;;;-141.97;40.99
7018;BME280;3549;42.162;24.726;2023-08-07T07:49:00;47388.38;;;-141.97;40.05
7018;BME280;3549;42.162;24.726;2023-08-07T07:51:28;47399.91;;;-141.97;39.58
7018;BME280;3549;42.162;24.726;2023-08-07T07:53:54;47348.03;;;-141.97;38.27
7018;BME280;3549;42.162;24.726;2023-08-07T07:56:20;47380.69;;;-141.97;38.07
7018;BME280;3549;42.162;24.726;2023-08-07T07:58:45;47419.13;;;-141.97;39.11
7018;BME280;3549;42.162;24.726;2023-08-07T08:01:11;47430.66;;;-141.97;37.54
7018;BME280;3549;42.162;24.726;2023-08-07T08:03:36;47436.44;;;-141.97;38.13
7018;BME280;3549;42.162;24.726;2023-08-07T08:06:01;47419.13;;;-141.97;37.89
7018;BME280;3549;42.162;24.726;2023-08-07T08:08:27;47417.22;;;-141.97;37.24
7018;BME280;3549;42.162;24.726;2023-08-07T08:10:52;47388.38;;;-141.97;37.34
7018;BME280;3549;42.162;24.726;2023-08-07T08:13:18;47436.44;;;-141.97;36.84
7018;BME280;3549;42.162;24.726;2023-08-07T08:15:44;47426.81;;;-141.97;36.88
7018;BME280;3549;42.162;24.726;2023-08-07T08:18:10;47394.16;;;-141.97;36.67
7018;BME280;3549;42.162;24.726;2023-08-07T08:20:37;47336.50;;;-141.97;36.56
7018;BME280;3549;42.162;24.726;2023-08-07T08:23:02;47382.63;;;-141.97;36.66
7018;BME280;3549;42.162;24.726;2023-08-07T08:25:28;47421.06;;;-141.97;37.13
7018;BME280;3549;42.162;24.726;2023-08-07T08:27:53;47409.53;;;-141.97;37.13
7018;BME280;3549;42.162;24.726;2023-08-07T08:30:19;47426.81;;;-141.97;36.50
7018;BME280;3549;42.162;24.726;2023-08-07T08:32:44;47426.81;;;-141.97;37.07
7018;BME280;3549;42.162;24.726;2023-08-07T08:35:10;47380.69;;;-141.97;36.36
7018;BME280;3549;42.162;24.726;2023-08-07T08:37:36;47465.25;;;-141.97;34.85
7018;BME280;3549;42.162;24.726;2023-08-07T08:40:02;47390.31;;;-141.97;34.13
7018;BME280;3549;42.162;24.726;2023-08-07T08:42:28;47380.69;;;-141.97;34.31
7018;BME280;3549;42.162;24.726;2023-08-07T08:44:56;47371.09;;;-141.97;34.24
7018;BME280;3549;42.162;24.726;2023-08-07T08:47:22;47363.41;;;-141.97;33.79
7018;BME280;3549;42.162;24.726;2023-08-07T08:50:08;47348.03;;;-141.97;33.55
7018;BME280;3549;42.162;24.726;2023-08-07T08:52:36;47438.34;;;-141.97;33.25
7018;BME280;3549;42.162;24.726;2023-08-07T08:55:03;47361.47;;;-141.97;34.02
7018;BME280;3549;42.162;24.726;2023-08-07T08:57:29;47349.94;;;-141.97;33.74
7018;BME280;3549;42.162;24.726;2023-08-07T08:59:56;47363.41;;;-141.97;33.87
7018;BME280;3549;42.162;24.726;2023-08-07T09:02:22;47359.56;;;-141.97;33.75
7018;BME280;3549;42.162;24.726;2023-08-07T09:04:47;47367.25;;;-141.97;33.32
7018;BME280;3549;42.162;24.726;2023-08-07T09:07:14;47273.06;;;-141.97;33.03
7018;BME280;3549;42.162;24.726;2023-08-07T09:09:41;47332.66;;;-141.97;32.82
7018;BME280;3549;42.162;24.726;2023-08-07T09:12:15;47332.66;;;-141.97;32.74
7018;BME280;3549;42.162;24.726;2023-08-07T09:14:43;47342.25;;;-141.97;31.76
7018;BME280;3549;42.162;24.726;2023-08-07T09:17:12;47338.41;;;-141.97;32.60
7018;BME280;3549;42.162;24.726;2023-08-07T09:19:38;47307.66;;;-141.97;31.84
7018;BME280;3549;42.162;24.726;2023-08-07T09:22:04;47369.16;;;-141.97;31.74
7018;BME280;3549;42.162;24.726;2023-08-07T09:24:30;47338.41;;;-141.97;31.28
7018;BME280;3549;42.162;24.726;2023-08-07T09:26:56;47361.47;;;-141.97;31.88
7018;BME280;3549;42.162;24.726;2023-08-07T09:29:22;47422.97;;;-141.97;32.47
7018;BME280;3549;42.162;24.726;2023-08-07T09:31:47;47319.19;;;-141.97;31.17
7018;BME280;3549;42.162;24.726;2023-08-07T09:34:13;47292.28;;;-141.97;31.85
7018;BME280;3549;42.162;24.726;2023-08-07T09:36:41;47363.41;;;-141.97;32.55
7018;BME280;3549;42.162;24.726;2023-08-07T09:39:07;47311.50;;;-141.97;32.42
7018;BME280;3549;42.162;24.726;2023-08-07T09:41:32;47330.72;;;-141.97;31.05
7018;BME280;3549;42.162;24.726;2023-08-07T09:44:09;47342.25;;;-141.97;30.77
7018;BME280;3549;42.162;24.726;2023-08-07T09:46:45;47344.19;;;-141.97;31.18
7018;BME280;3549;42.162;24.726;2023-08-07T09:49:11;47319.19;;;-141.97;30.69
7018;BME280;3549;42.162;24.726;2023-08-07T09:51:43;47324.97;;;-141.97;31.14
7018;BME280;3549;42.162;24.726;2023-08-07T09:54:08;47338.41;;;-141.97;30.49
7018;BME280;3549;42.162;24.726;2023-08-07T09:56:35;47282.69;;;-141.97;30.51
7018;BME280;3549;42.162;24.726;2023-08-07T09:59:00;47338.41;;;-141.97;30.06
7018;BME280;3549;42.162;24.726;2023-08-07T10:01:25;47426.81;;;-141.97;31.09
7018;BME280;3549;42.162;24.726;2023-08-07T10:03:51;47338.41;;;-141.97;30.38
7018;BME280;3549;42.162;24.726;2023-08-07T10:06:18;47298.06;;;-141.97;29.80
7018;BME280;3549;42.162;24.726;2023-08-07T10:08:45;47319.19;;;-141.97;29.93
7018;BME280;3549;42.162;24.726;2023-08-07T10:11:11;47321.13;;;-141.97;30.05
7018;BME280;3549;42.162;24.726;2023-08-07T10:13:40;47307.66;;;-141.97;29.86
7018;BME280;3549;42.162;24.726;2023-08-07T10:16:05;47288.44;;;-141.97;30.02
7018;BME280;3549;42.162;24.726;2023-08-07T10:18:31;47369.16;;;-141.97;29.73
7018;BME280;3549;42.162;24.726;2023-08-07T10:20:57;47313.44;;;-141.97;29.56
7018;BME280;3549;42.162;24.726;2023-08-07T10:23:23;47311.50;;;-141.97;29.52
7018;BME280;3549;42.162;24.726;2023-08-07T10:25:50;47307.66;;;-141.97;29.55
7018;BME280;3549;42.162;24.726;2023-08-07T10:28:18;47299.97;;;-141.97;29.54
7018;BME280;3549;42.162;24.726;2023-08-07T10:30:45;47292.28;;;-141.97;29.02
7018;BME280;3549;42.162;24.726;2023-08-07T10:33:12;47307.66;;;-141.97;30.06
7018;BME280;3549;42.162;24.726;2023-08-07T10:35:44;47284.59;;;-141.97;29.36
7018;BME280;3549;42.162;24.726;2023-08-07T10:38:10;47321.13;;;-141.97;30.00
7018;BME280;3549;42.162;24.726;2023-08-07T10:43:26;47338.41;;;-141.97;29.79
7018;BME280;3549;42.162;24.726;2023-08-07T10:45:53;47371.09;;;-141.97;29.91
7018;BME280;3549;42.162;24.726;2023-08-07T10:48:20;47296.13;;;-141.97;29.90
7018;BME280;3549;42.162;24.726;2023-08-07T10:50:58;47298.06;;;-141.97;29.57
7018;BME280;3549;42.162;24.726;2023-08-07T10:53:38;47321.13;;;-141.97;29.59
7018;BME280;3549;42.162;24.726;2023-08-07T10:56:09;47334.56;;;-141.97;30.60
7018;BME280;3549;42.162;24.726;2023-08-07T10:58:36;47296.13;;;-141.97;30.46
7018;BME280;3549;42.162;24.726;2023-08-07T11:03:45;47309.59;;;-141.97;29.85
7018;BME280;3549;42.162;24.726;2023-08-07T11:06:11;47307.66;;;-141.97;29.06
7018;BME280;3549;42.162;24.726;2023-08-07T11:08:37;47324.97;;;-141.97;29.04
7018;BME280;3549;42.162;24.726;2023-08-07T11:11:04;47273.06;;;-141.97;29.13
7018;BME280;3549;42.162;24.726;2023-08-07T11:13:30;47299.97;;;-141.97;28.94
7018;BME280;3549;42.162;24.726;2023-08-07T11:15:56;47242.31;;;-141.97;29.24
7018;BME280;3549;42.162;24.726;2023-08-07T11:18:22;47330.72;;;-141.97;29.42
7018;BME280;3549;42.162;24.726;2023-08-07T11:20:48;47278.84;;;-141.97;29.46
7018;BME280;3549;42.162;24.726;2023-08-07T11:23:13;47284.59;;;-141.97;29.06
7018;BME280;3549;42.162;24.726;2023-08-07T11:25:39;47305.75;;;-141.97;29.36
7018;BME280;3549;42.162;24.726;2023-08-07T11:28:04;47292.28;;;-141.97;29.28
7018;BME280;3549;42.162;24.726;2023-08-07T11:30:30;47203.88;;;-141.97;29.27
7018;BME280;3549;42.162;24.726;2023-08-07T11:32:56;47265.38;;;-141.97;28.95
7018;BME280;3549;42.162;24.726;2023-08-07T11:35:22;47251.94;;;-141.97;28.77
7018;BME280;3549;42.162;24.726;2023-08-07T11:37:48;47238.47;;;-141.97;28.00
7018;BME280;3549;42.162;24.726;2023-08-07T11:40:14;47205.81;;;-141.97;27.43
7018;BME280;3549;42.162;24.726;2023-08-07T11:42:40;47192.34;;;-141.97;27.39
7018;BME280;3549;42.162;24.726;2023-08-07T11:45:07;47184.66;;;-141.97;26.75
7018;BME280;3549;42.162;24.726;2023-08-07T11:47:33;47426.81;;;-141.97;26.43
7018;BME280;3549;42.162;24.726;2023-08-07T11:49:58;47194.28;;;-141.97;26.36
7018;BME280;3549;42.162;24.726;2023-08-07T11:52:24;47184.66;;;-141.97;26.32
7018;BME280;3549;42.162;24.726;2023-08-07T11:54:52;47169.28;;;-141.97;25.74
7018;BME280;3549;42.162;24.726;2023-08-07T11:57:19;47102.03;;;-141.97;25.71
7018;BME280;3549;42.162;24.726;2023-08-07T11:59:51;47084.72;;;-141.97;25.57
7018;BME280;3549;42.162;24.726;2023-08-07T12:02:22;47127.00;;;-141.97;24.98
7018;BME280;3549;42.162;24.726;2023-08-07T12:04:48;47142.38;;;-141.97;24.97
7018;BME280;3549;42.162;24.726;2023-08-07T12:07:17;47123.16;;;-141.97;25.14
7018;BME280;3549;42.162;24.726;2023-08-07T12:09:44;47472.94;;;-141.97;25.47
7018;BME280;3549;42.162;24.726;2023-08-07T12:12:11;47157.75;;;-141.97;25.70
7018;BME280;3549;42.162;24.726;2023-08-07T12:14:36;47169.28;;;-141.97;24.83
7018;BME280;3549;42.162;24.726;2023-08-07T12:17:03;47004.00;;;-141.97;24.50
7018;BME280;3549;42.162;24.726;2023-08-07T12:19:38;47055.91;;;-141.97;24.27
7018;BME280;3549;42.162;24.726;2023-08-07T12:22:06;47048.22;;;-141.97;24.20
7018;BME280;3549;42.162;24.726;2023-08-07T12:24:34;47059.75;;;-141.97;23.91
7018;BME280;3549;42.162;24.726;2023-08-07T12:26:59;47019.38;;;-141.97;24.47
7018;BME280;3549;42.162;24.726;2023-08-07T12:29:25;47203.88;;;-141.97;23.98
7018;BME280;3549;42.162;24.726;2023-08-07T12:31:54;47053.97;;;-141.97;24.17
7018;BME280;3549;42.162;24.726;2023-08-07T12:34:19;47050.13;;;-141.97;23.95
7018;BME280;3549;42.162;24.726;2023-08-07T12:36:45;47029.00;;;-141.97;23.58
7018;BME280;3549;42.162;24.726;2023-08-07T12:39:10;47027.06;;;-141.97;23.63
7018;BME280;3549;42.162;24.726;2023-08-07T12:41:36;47215.41;;;-141.97;23.99
7018;BME280;3549;42.162;24.726;2023-08-07T12:44:01;47055.91;;;-141.97;23.95
7018;BME280;3549;42.162;24.726;2023-08-07T12:46:26;46992.47;;;-141.97;23.92
7018;BME280;3549;42.162;24.726;2023-08-07T12:48:54;47053.97;;;-141.97;24.24
7018;BME280;3549;42.162;24.726;2023-08-07T12:51:19;47061.66;;;-141.97;24.59
7018;BME280;3549;42.162;24.726;2023-08-07T12:53:45;47052.06;;;-141.97;24.13
7018;BME280;3549;42.162;24.726;2023-08-07T12:56:15;47080.88;;;-141.97;24.04